Cheshire, Ohio
Current Conditions -  °F | °C
As of 11:15 PM on Thursday 27 Nov 2014 (Local Time) from K3I2 Reporting Station
Overcast Overcast  
Wind Chill: 27°   Ceiling: 4200
Heat Index: 32°   Visibility: 10mi
Dew Point: 27°   Wind: 5mph
Humidity: 80%   Direction: 290°WNW
Pressure: 30.36"   Gusts: NA
Location:  38.94°N, 82.11°W
Report Text: K3I2 280415Z AUTO 29004KT 10SM BKN042 OVC050 00/M03 A3036 RMK AO2
Loading
Personal Weather Stations






























Interactive Weather Map New forecast layout! Learn more

10-Day Weather Forecast

Advertisements
Track Severe Weather on mobile